Time,TemperatureF,DewpointF,PressureIn,WindDirection,WindDirectionDegrees,WindSpeedMPH,WindSpeedGustMPH,Humidity,HourlyPrecipIn,Conditions,Clouds,dailyrainin,SoftwareType,DateUTC
2013-11-18 00:02:00,47.3,43.3,30.01,North,359,0.0,0.0,86,0.00,,---,0.00,VWS V14.01,2013-11-18 08:02:00,
2013-11-18 00:12:00,47.0,43.0,30.01,North,359,0.0,0.0,86,0.00,,---,0.00,VWS V14.01,2013-11-18 08:12:00,
2013-11-18 00:17:00,46.8,42.8,30.01,North,359,0.0,0.0,86,0.00,,---,0.00,VWS V14.01,2013-11-18 08:17:00,
2013-11-18 00:22:00,46.7,42.7,30.01,North,359,0.0,0.0,86,0.00,,---,0.00,VWS V14.01,2013-11-18 08:22:00,
2013-11-18 00:27:00,46.7,42.7,30.01,North,359,0.0,0.0,86,0.00,,---,0.00,VWS V14.01,2013-11-18 08:27:00,
2013-11-18 00:37:00,46.4,42.5,30.00,North,359,0.0,0.0,86,0.00,,---,0.00,VWS V14.01,2013-11-18 08:37:00,
2013-11-18 00:47:00,46.2,42.2,30.00,North,359,0.0,0.0,86,0.00,,---,0.00,VWS V14.01,2013-11-18 08:47:00,
2013-11-18 00:52:00,46.2,42.2,30.00,North,359,0.0,0.0,86,0.00,,---,0.00,VWS V14.01,2013-11-18 08:52:00,
2013-11-18 00:57:00,46.1,42.2,30.00,North,359,0.0,0.0,86,0.00,,---,0.00,VWS V14.01,2013-11-18 08:57:00,
2013-11-18 01:02:00,46.1,42.2,30.00,North,359,0.0,0.0,86,0.00,,---,0.00,VWS V14.01,2013-11-18 09:02:00,
2013-11-18 01:12:00,46.0,42.0,30.00,North,359,0.0,0.0,86,0.00,,---,0.00,VWS V14.01,2013-11-18 09:12:00,
2013-11-18 01:22:00,45.8,42.2,30.00,North,359,0.0,0.0,87,0.00,,---,0.00,VWS V14.01,2013-11-18 09:22:00,
2013-11-18 01:27:00,45.8,42.2,30.00,North,359,0.0,0.0,87,0.00,,---,0.00,VWS V14.01,2013-11-18 09:27:00,
2013-11-18 01:32:00,45.8,42.2,30.00,North,359,0.0,0.0,87,0.00,,---,0.00,VWS V14.01,2013-11-18 09:32:00,
2013-11-18 01:37:00,45.7,42.1,30.00,North,359,0.0,0.0,87,0.00,,---,0.00,VWS V14.01,2013-11-18 09:37:00,
2013-11-18 01:42:00,45.7,42.1,30.00,North,359,0.0,0.0,87,0.00,,---,0.00,VWS V14.01,2013-11-18 09:42:00,
2013-11-18 01:47:00,45.7,42.1,29.99,North,359,0.0,0.0,87,0.00,,---,0.00,VWS V14.01,2013-11-18 09:47:00,
2013-11-18 01:52:00,45.8,42.2,29.99,North,359,0.0,0.0,87,0.00,,---,0.00,VWS V14.01,2013-11-18 09:52:00,
2013-11-18 02:02:00,45.7,42.1,29.99,North,359,0.0,0.0,87,0.00,,---,0.00,VWS V14.01,2013-11-18 10:02:00,
2013-11-18 02:12:00,45.5,42.2,29.99,North,359,0.0,0.0,88,0.00,,---,0.00,VWS V14.01,2013-11-18 10:12:00,
2013-11-18 02:17:00,45.4,42.1,29.99,North,359,0.0,0.0,88,0.00,,---,0.00,VWS V14.01,2013-11-18 10:17:00,
2013-11-18 02:22:00,45.2,41.9,29.99,North,359,0.0,0.0,88,0.00,,---,0.00,VWS V14.01,2013-11-18 10:22:00,
2013-11-18 02:32:00,44.9,41.6,29.99,North,359,0.0,0.0,88,0.00,,---,0.00,VWS V14.01,2013-11-18 10:32:00,
2013-11-18 02:37:00,44.9,41.6,29.99,North,359,0.0,0.0,88,0.00,,---,0.00,VWS V14.01,2013-11-18 10:37:00,
2013-11-18 02:47:00,44.8,41.5,29.99,North,359,0.0,0.0,88,0.00,,---,0.00,VWS V14.01,2013-11-18 10:47:00,
2013-11-18 02:52:00,44.8,41.5,29.99,North,359,0.0,0.0,88,0.00,,---,0.00,VWS V14.01,2013-11-18 10:52:00,
2013-11-18 03:02:00,44.6,41.3,29.99,North,359,0.0,0.0,88,0.00,,---,0.00,VWS V14.01,2013-11-18 11:02:00,
2013-11-18 03:12:00,44.5,41.2,29.99,North,359,0.0,0.0,88,0.00,,---,0.00,VWS V14.01,2013-11-18 11:12:00,
2013-11-18 03:17:00,44.3,41.0,29.99,North,359,0.0,0.0,88,0.00,,---,0.00,VWS V14.01,2013-11-18 11:17:00,
2013-11-18 03:22:00,44.3,41.3,29.99,North,359,0.0,0.0,89,0.00,,---,0.00,VWS V14.01,2013-11-18 11:22:00,
2013-11-18 03:27:00,44.2,41.2,29.99,North,359,0.0,0.0,89,0.00,,---,0.00,VWS V14.01,2013-11-18 11:27:00,
2013-11-18 03:37:00,44.1,41.1,29.99,North,359,0.0,0.0,89,0.00,,---,0.00,VWS V14.01,2013-11-18 11:37:00,
2013-11-18 03:42:00,44.1,41.1,29.99,North,359,0.0,0.0,89,0.00,,---,0.00,VWS V14.01,2013-11-18 11:42:00,
2013-11-18 03:52:00,43.9,40.9,29.99,North,359,0.0,0.0,89,0.00,,---,0.00,VWS V14.01,2013-11-18 11:52:00,
2013-11-18 03:57:00,43.8,40.8,29.99,North,359,0.0,0.0,89,0.00,,---,0.00,VWS V14.01,2013-11-18 11:57:00,
2013-11-18 04:02:00,43.8,40.8,30.00,North,359,0.0,0.0,89,0.00,,---,0.00,VWS V14.01,2013-11-18 12:02:00,
2013-11-18 04:07:00,43.8,40.8,30.00,North,359,0.0,0.0,89,0.00,,---,0.00,VWS V14.01,2013-11-18 12:07:00,
2013-11-18 04:17:00,43.6,40.6,30.00,North,359,0.0,0.0,89,0.00,,---,0.00,VWS V14.01,2013-11-18 12:17:00,
2013-11-18 04:22:00,43.5,40.5,30.00,North,359,0.0,0.0,89,0.00,,---,0.00,VWS V14.01,2013-11-18 12:22:00,
2013-11-18 04:32:00,43.6,40.6,30.01,North,359,0.0,0.0,89,0.00,,---,0.00,VWS V14.01,2013-11-18 12:32:00,
2013-11-18 04:37:00,43.6,40.6,30.01,North,359,0.0,0.0,89,0.00,,---,0.00,VWS V14.01,2013-11-18 12:37:00,
2013-11-18 04:47:00,43.8,41.1,30.01,North,359,0.0,0.0,90,0.00,,---,0.00,VWS V14.01,2013-11-18 12:47:00,
2013-11-18 04:57:00,43.6,40.9,30.01,North,359,0.0,0.0,90,0.00,,---,0.00,VWS V14.01,2013-11-18 12:57:00,
2013-11-18 05:07:00,43.6,40.9,30.01,North,359,0.0,0.0,90,0.00,,---,0.00,VWS V14.01,2013-11-18 13:07:00,
2013-11-18 05:12:00,43.5,40.8,30.01,North,359,0.0,0.0,90,0.00,,---,0.00,VWS V14.01,2013-11-18 13:12:00,
2013-11-18 05:17:00,43.3,40.6,30.02,North,359,0.0,0.0,90,0.00,,---,0.00,VWS V14.01,2013-11-18 13:17:00,
2013-11-18 05:22:00,43.3,40.6,30.02,North,359,0.0,0.0,90,0.00,,---,0.00,VWS V14.01,2013-11-18 13:22:00,
2013-11-18 05:32:00,43.2,40.5,30.03,North,359,0.0,0.0,90,0.00,,---,0.00,VWS V14.01,2013-11-18 13:32:00,
2013-11-18 05:37:00,43.2,40.5,30.03,North,359,0.0,0.0,90,0.00,,---,0.00,VWS V14.01,2013-11-18 13:37:00,
2013-11-18 05:47:00,43.1,40.4,30.03,North,359,0.0,0.0,90,0.00,,---,0.00,VWS V14.01,2013-11-18 13:47:00,
2013-11-18 05:57:00,42.8,40.1,30.03,North,359,0.0,0.0,90,0.00,,---,0.00,VWS V14.01,2013-11-18 13:57:00,
2013-11-18 06:07:00,42.6,39.9,30.03,North,359,0.0,0.0,90,0.00,,---,0.00,VWS V14.01,2013-11-18 14:07:00,
2013-11-18 06:17:00,42.5,39.8,30.03,North,359,0.0,0.0,90,0.00,,---,0.00,VWS V14.01,2013-11-18 14:17:00,
2013-11-18 06:22:00,42.5,39.8,30.03,North,359,0.0,0.0,90,0.00,,---,0.00,VWS V14.01,2013-11-18 14:22:00,
2013-11-18 06:32:00,42.3,39.9,30.03,North,359,0.0,0.0,91,0.00,,---,0.00,VWS V14.01,2013-11-18 14:32:00,
2013-11-18 06:42:00,42.3,39.9,30.03,North,359,0.0,0.0,91,0.00,,---,0.00,VWS V14.01,2013-11-18 14:42:00,
2013-11-18 06:52:00,42.2,39.8,30.04,North,359,0.0,0.0,91,0.00,,---,0.00,VWS V14.01,2013-11-18 14:52:00,
2013-11-18 06:57:00,42.2,39.8,30.04,North,359,0.0,0.0,91,0.00,,---,0.00,VWS V14.01,2013-11-18 14:57:00,
2013-11-18 07:02:00,42.2,39.8,30.05,North,359,0.0,0.0,91,0.00,,---,0.00,VWS V14.01,2013-11-18 15:02:00,
2013-11-18 07:12:00,42.2,39.8,30.05,North,359,0.0,0.0,91,0.00,,---,0.00,VWS V14.01,2013-11-18 15:12:00,
2013-11-18 07:22:00,42.6,40.4,30.06,North,359,0.0,0.0,92,0.00,,---,0.00,VWS V14.01,2013-11-18 15:22:00,
2013-11-18 07:27:00,42.8,40.6,30.06,North,359,0.0,0.0,92,0.00,,---,0.00,VWS V14.01,2013-11-18 15:27:00,
2013-11-18 07:32:00,42.8,40.6,30.06,North,359,0.0,0.0,92,0.00,,---,0.00,VWS V14.01,2013-11-18 15:32:00,
2013-11-18 07:42:00,45.1,42.9,30.06,NNE,13,0.0,0.0,92,0.00,,---,0.00,VWS V14.01,2013-11-18 15:42:00,
2013-11-18 07:47:00,45.7,43.8,30.06,NNE,13,0.0,0.0,93,0.00,,---,0.00,VWS V14.01,2013-11-18 15:47:00,
2013-11-18 07:52:00,46.1,44.2,30.06,NNE,13,0.0,0.0,93,0.00,,---,0.00,VWS V14.01,2013-11-18 15:52:00,
2013-11-18 08:02:00,46.1,44.2,30.06,NNE,13,0.0,0.0,93,0.00,,---,0.00,VWS V14.01,2013-11-18 16:02:00,
2013-11-18 08:12:00,47.6,45.7,30.06,North,0,0.0,0.0,93,0.00,,---,0.00,VWS V14.01,2013-11-18 16:12:00,
2013-11-18 08:17:00,48.5,46.6,30.06,North,0,0.0,0.0,93,0.00,,---,0.00,VWS V14.01,2013-11-18 16:17:00,
2013-11-18 08:22:00,48.9,46.7,30.06,North,0,0.0,0.0,92,0.00,,---,0.00,VWS V14.01,2013-11-18 16:22:00,
2013-11-18 08:32:00,50.7,47.9,30.06,North,0,0.0,0.0,90,0.00,,---,0.00,VWS V14.01,2013-11-18 16:32:00,
2013-11-18 08:37:00,51.1,47.7,30.06,North,0,0.0,0.0,88,0.00,,---,0.00,VWS V14.01,2013-11-18 16:37:00,
2013-11-18 08:47:00,52.6,48.8,30.06,NNE,30,0.0,0.0,87,0.00,,---,0.00,VWS V14.01,2013-11-18 16:47:00,
2013-11-18 08:57:00,53.6,48.2,30.06,SSW,203,0.0,0.0,82,0.00,,---,0.00,VWS V14.01,2013-11-18 16:57:00,
2013-11-18 09:02:00,53.9,48.2,30.06,SSW,203,0.0,0.0,81,0.00,,---,0.00,VWS V14.01,2013-11-18 17:02:00,
2013-11-18 09:12:00,55.1,47.7,30.06,SSW,203,0.0,0.0,76,0.00,,---,0.00,VWS V14.01,2013-11-18 17:12:00,
2013-11-18 09:17:00,55.7,47.5,30.07,SSW,203,0.0,0.0,74,0.00,,---,0.00,VWS V14.01,2013-11-18 17:17:00,
2013-11-18 09:22:00,56.3,47.8,30.07,SSW,205,0.0,0.0,73,0.00,,---,0.00,VWS V14.01,2013-11-18 17:22:00,
2013-11-18 09:27:00,57.0,48.1,30.07,SSW,203,0.0,0.0,72,0.00,,---,0.00,VWS V14.01,2013-11-18 17:27:00,
2013-11-18 09:32:00,58.0,48.3,30.07,SSW,202,0.0,0.0,70,0.00,,---,0.00,VWS V14.01,2013-11-18 17:32:00,
2013-11-18 09:37:00,58.0,47.1,30.07,SSW,202,0.0,0.0,67,0.00,,---,0.00,VWS V14.01,2013-11-18 17:37:00,
2013-11-18 09:42:00,58.9,47.6,30.07,SSW,202,0.0,0.0,66,0.00,,---,0.00,VWS V14.01,2013-11-18 17:42:00,
2013-11-18 09:47:00,59.6,47.8,30.07,SSE,165,0.0,0.0,65,0.00,,---,0.00,VWS V14.01,2013-11-18 17:47:00,
2013-11-18 09:52:00,60.2,47.6,30.07,SSE,167,0.0,0.0,63,0.00,,---,0.00,VWS V14.01,2013-11-18 17:52:00,
2013-11-18 09:57:00,60.7,47.6,30.07,SSE,164,0.0,0.0,62,0.00,,---,0.00,VWS V14.01,2013-11-18 17:57:00,
2013-11-18 10:02:00,61.2,48.5,30.07,SSE,168,0.0,0.0,63,0.00,,---,0.00,VWS V14.01,2013-11-18 18:02:00,
2013-11-18 10:12:00,62.0,50.1,30.07,South,185,0.0,0.0,65,0.00,,---,0.00,VWS V14.01,2013-11-18 18:12:00,
2013-11-18 10:17:00,62.4,51.3,30.06,SW,216,0.0,0.0,67,0.00,,---,0.00,VWS V14.01,2013-11-18 18:17:00,
2013-11-18 10:22:00,62.4,50.9,30.06,SW,236,0.0,0.0,66,0.00,,---,0.00,VWS V14.01,2013-11-18 18:22:00,
2013-11-18 10:32:00,63.2,52.1,30.05,SSW,210,0.0,0.0,67,0.00,,---,0.00,VWS V14.01,2013-11-18 18:32:00,
2013-11-18 10:37:00,63.4,51.4,30.05,SW,232,0.0,0.0,65,0.00,,---,0.00,VWS V14.01,2013-11-18 18:37:00,
2013-11-18 10:42:00,63.7,51.7,30.05,South,189,0.0,0.0,65,0.00,,---,0.00,VWS V14.01,2013-11-18 18:42:00,
2013-11-18 10:52:00,64.3,51.9,30.05,SSE,148,0.0,0.0,64,0.00,,---,0.00,VWS V14.01,2013-11-18 18:52:00,
2013-11-18 10:57:00,64.3,51.9,30.05,SSW,210,0.0,0.0,64,0.00,,---,0.00,VWS V14.01,2013-11-18 18:57:00,
2013-11-18 11:02:00,64.2,51.8,30.04,WSW,244,0.0,0.0,64,0.00,,---,0.00,VWS V14.01,2013-11-18 19:02:00,
2013-11-18 11:07:00,64.8,52.3,30.04,SW,215,0.0,0.0,64,0.00,,---,0.00,VWS V14.01,2013-11-18 19:07:00,
2013-11-18 11:12:00,65.0,51.7,30.04,WSW,247,0.0,0.0,62,0.00,,---,0.00,VWS V14.01,2013-11-18 19:12:00,
2013-11-18 11:17:00,65.8,52.4,30.04,SSW,208,0.0,0.0,62,0.00,,---,0.00,VWS V14.01,2013-11-18 19:17:00,
2013-11-18 11:27:00,66.8,52.9,30.04,SSW,205,0.0,0.0,61,0.00,,---,0.00,VWS V14.01,2013-11-18 19:27:00,
2013-11-18 11:32:00,66.9,53.0,30.03,SSW,210,0.0,0.0,61,0.00,,---,0.00,VWS V14.01,2013-11-18 19:32:00,
2013-11-18 11:37:00,66.3,51.6,30.03,West,265,0.0,0.0,59,0.00,,---,0.00,VWS V14.01,2013-11-18 19:37:00,
2013-11-18 11:47:00,66.8,52.0,30.02,SSE,167,0.0,2.0,59,0.00,,---,0.00,VWS V14.01,2013-11-18 19:47:00,
2013-11-18 11:57:00,67.4,52.6,30.02,SW,229,0.0,0.0,59,0.00,,---,0.00,VWS V14.01,2013-11-18 19:57:00,
2013-11-18 12:02:00,67.6,51.8,30.01,SW,232,0.0,0.0,57,0.00,,---,0.00,VWS V14.01,2013-11-18 20:02:00,
2013-11-18 12:12:00,68.3,53.0,30.01,SW,216,3.0,4.0,58,0.00,,---,0.00,VWS V14.01,2013-11-18 20:12:00,
2013-11-18 12:22:00,68.3,53.0,30.01,SW,227,0.0,3.0,58,0.00,,---,0.00,VWS V14.01,2013-11-18 20:22:00,
2013-11-18 12:27:00,68.4,53.1,30.01,WSW,247,0.0,3.0,58,0.00,,---,0.00,VWS V14.01,2013-11-18 20:27:00,
2013-11-18 12:37:00,68.1,53.2,30.00,WSW,237,0.0,2.0,59,0.00,,---,0.00,VWS V14.01,2013-11-18 20:37:00,
2013-11-18 12:42:00,68.3,53.4,30.00,WSW,240,0.0,2.0,59,0.00,,---,0.00,VWS V14.01,2013-11-18 20:42:00,
2013-11-18 12:52:00,68.3,53.4,29.99,WSW,246,0.0,2.0,59,0.00,,---,0.00,VWS V14.01,2013-11-18 20:52:00,
2013-11-18 12:57:00,68.1,53.7,29.99,WSW,240,0.0,1.0,60,0.00,,---,0.00,VWS V14.01,2013-11-18 20:57:00,
2013-11-18 13:07:00,68.3,53.9,29.99,SSW,199,0.0,2.0,60,0.00,,---,0.00,VWS V14.01,2013-11-18 21:07:00,
2013-11-18 13:12:00,68.4,54.0,29.99,WSW,246,0.0,0.0,60,0.00,,---,0.00,VWS V14.01,2013-11-18 21:12:00,
2013-11-18 13:22:00,68.4,53.1,29.98,WSW,244,2.0,5.0,58,0.00,,---,0.00,VWS V14.01,2013-11-18 21:22:00,
2013-11-18 13:27:00,68.6,53.2,29.98,SW,216,0.0,3.0,58,0.00,,---,0.00,VWS V14.01,2013-11-18 21:27:00,
2013-11-18 13:32:00,68.8,53.0,29.97,SSW,199,0.0,4.0,57,0.00,,---,0.00,VWS V14.01,2013-11-18 21:32:00,
2013-11-18 13:37:00,68.8,53.0,29.97,SSW,209,0.0,2.0,57,0.00,,---,0.00,VWS V14.01,2013-11-18 21:37:00,
2013-11-18 13:47:00,68.4,53.1,29.97,WSW,243,1.0,1.0,58,0.00,,---,0.00,VWS V14.01,2013-11-18 21:47:00,
2013-11-18 13:57:00,68.8,53.0,29.97,SSW,203,0.0,7.0,57,0.00,,---,0.00,VWS V14.01,2013-11-18 21:57:00,
2013-11-18 14:07:00,68.1,53.2,29.97,South,184,0.0,5.0,59,0.00,,---,0.00,VWS V14.01,2013-11-18 22:07:00,
2013-11-18 14:12:00,68.3,53.4,29.97,West,280,0.0,3.0,59,0.00,,---,0.00,VWS V14.01,2013-11-18 22:12:00,
2013-11-18 14:22:00,67.6,53.2,29.96,SW,229,0.0,1.0,60,0.00,,---,0.00,VWS V14.01,2013-11-18 22:22:00,
2013-11-18 14:27:00,67.3,53.0,29.96,West,275,0.0,1.0,60,0.00,,---,0.00,VWS V14.01,2013-11-18 22:27:00,
2013-11-18 14:37:00,66.4,53.0,29.96,WSW,251,1.0,5.0,62,0.00,,---,0.00,VWS V14.01,2013-11-18 22:37:00,
2013-11-18 14:47:00,65.8,52.9,29.96,NW,320,0.0,7.0,63,0.00,,---,0.00,VWS V14.01,2013-11-18 22:47:00,
2013-11-18 14:57:00,65.2,53.2,29.96,WSW,248,0.0,6.0,65,0.00,,---,0.00,VWS V14.01,2013-11-18 22:57:00,
2013-11-18 15:02:00,65.0,53.0,29.96,SW,233,1.0,6.0,65,0.00,,---,0.00,VWS V14.01,2013-11-18 23:02:00,
2013-11-18 15:12:00,64.7,53.1,29.96,WSW,237,3.0,5.0,66,0.00,,---,0.00,VWS V14.01,2013-11-18 23:12:00,
2013-11-18 15:17:00,64.5,53.3,29.96,SSW,208,0.0,3.0,67,0.00,,---,0.00,VWS V14.01,2013-11-18 23:17:00,
2013-11-18 15:22:00,64.5,53.7,29.96,SSW,212,1.0,2.0,68,0.00,,---,0.00,VWS V14.01,2013-11-18 23:22:00,
2013-11-18 15:32:00,64.0,53.2,29.96,SW,215,0.0,4.0,68,0.00,,---,0.00,VWS V14.01,2013-11-18 23:32:00,
2013-11-18 15:37:00,63.7,53.0,29.96,SW,227,0.0,6.0,68,0.00,,---,0.00,VWS V14.01,2013-11-18 23:37:00,
2013-11-18 15:42:00,63.4,52.7,29.96,SW,232,0.0,5.0,68,0.00,,---,0.00,VWS V14.01,2013-11-18 23:42:00,
2013-11-18 15:52:00,62.6,52.3,29.96,WSW,241,0.0,5.0,69,0.00,,---,0.00,VWS V14.01,2013-11-18 23:52:00,
2013-11-18 16:02:00,62.1,52.2,29.97,WSW,246,0.0,6.0,70,0.00,,---,0.00,VWS V14.01,2013-11-19 00:02:00,
2013-11-18 16:07:00,62.0,52.5,29.97,SW,216,0.0,3.0,71,0.00,,---,0.00,VWS V14.01,2013-11-19 00:07:00,
2013-11-18 16:17:00,61.8,52.7,29.96,SW,224,0.0,2.0,72,0.00,,---,0.00,VWS V14.01,2013-11-19 00:17:00,
2013-11-18 16:22:00,61.8,52.7,29.96,SW,222,0.0,1.0,72,0.00,,---,0.00,VWS V14.01,2013-11-19 00:22:00,
2013-11-18 16:27:00,61.8,52.7,29.96,WSW,244,0.0,2.0,72,0.00,,---,0.00,VWS V14.01,2013-11-19 00:27:00,
2013-11-18 16:37:00,61.5,52.8,29.97,WSW,257,0.0,3.0,73,0.00,,---,0.00,VWS V14.01,2013-11-19 00:37:00,
2013-11-18 16:42:00,61.2,52.5,29.97,SW,230,0.0,3.0,73,0.00,,---,0.00,VWS V14.01,2013-11-19 00:42:00,
2013-11-18 16:47:00,60.9,52.2,29.98,West,265,0.0,2.0,73,0.00,,---,0.00,VWS V14.01,2013-11-19 00:47:00,
2013-11-18 16:52:00,60.5,52.2,29.98,West,261,0.0,1.0,74,0.00,,---,0.00,VWS V14.01,2013-11-19 00:52:00,
2013-11-18 16:57:00,60.2,51.9,29.98,SW,234,0.0,0.0,74,0.00,,---,0.00,VWS V14.01,2013-11-19 00:57:00,
2013-11-18 17:02:00,60.1,52.2,29.98,SW,234,0.0,0.0,75,0.00,,---,0.00,VWS V14.01,2013-11-19 01:02:00,
2013-11-18 17:07:00,59.8,51.9,29.98,WSW,240,0.0,0.0,75,0.00,,---,0.00,VWS V14.01,2013-11-19 01:07:00,
2013-11-18 17:17:00,59.5,51.9,29.98,SW,230,0.0,1.0,76,0.00,,---,0.00,VWS V14.01,2013-11-19 01:17:00,
2013-11-18 17:22:00,59.2,51.7,29.98,West,265,0.0,1.0,76,0.00,,---,0.00,VWS V14.01,2013-11-19 01:22:00,
2013-11-18 17:32:00,58.9,52.1,29.99,West,281,0.0,2.0,78,0.00,,---,0.00,VWS V14.01,2013-11-19 01:32:00,
2013-11-18 17:37:00,58.7,51.9,29.99,WSW,253,0.0,0.0,78,0.00,,---,0.00,VWS V14.01,2013-11-19 01:37:00,
2013-11-18 17:42:00,58.6,52.1,29.99,WSW,244,0.0,0.0,79,0.00,,---,0.00,VWS V14.01,2013-11-19 01:42:00,
2013-11-18 17:52:00,58.4,51.9,29.99,West,272,0.0,0.0,79,0.00,,---,0.00,VWS V14.01,2013-11-19 01:52:00,
2013-11-18 17:57:00,58.3,51.8,29.99,West,272,0.0,0.0,79,0.00,,---,0.00,VWS V14.01,2013-11-19 01:57:00,
2013-11-18 18:02:00,58.0,51.5,29.99,West,272,0.0,0.0,79,0.00,,---,0.00,VWS V14.01,2013-11-19 02:02:00,
2013-11-18 18:07:00,57.8,51.3,29.99,West,272,0.0,0.0,79,0.00,,---,0.00,VWS V14.01,2013-11-19 02:07:00,
2013-11-18 18:12:00,57.5,51.4,29.99,West,272,0.0,0.0,80,0.00,,---,0.00,VWS V14.01,2013-11-19 02:12:00,
2013-11-18 18:22:00,56.9,50.8,29.99,West,272,0.0,0.0,80,0.00,,---,0.00,VWS V14.01,2013-11-19 02:22:00,
2013-11-18 18:32:00,56.5,50.4,29.99,West,272,0.0,0.0,80,0.00,,---,0.00,VWS V14.01,2013-11-19 02:32:00,
2013-11-18 18:37:00,56.2,50.1,29.99,West,272,0.0,0.0,80,0.00,,---,0.00,VWS V14.01,2013-11-19 02:37:00,
2013-11-18 18:47:00,55.7,50.0,30.00,West,272,0.0,0.0,81,0.00,,---,0.00,VWS V14.01,2013-11-19 02:47:00,
2013-11-18 18:52:00,55.4,49.7,30.00,West,272,0.0,0.0,81,0.00,,---,0.00,VWS V14.01,2013-11-19 02:52:00,
2013-11-18 18:57:00,55.1,49.4,30.00,West,272,0.0,0.0,81,0.00,,---,0.00,VWS V14.01,2013-11-19 02:57:00,
2013-11-18 19:02:00,55.0,49.3,30.00,West,272,0.0,0.0,81,0.00,,---,0.00,VWS V14.01,2013-11-19 03:02:00,
2013-11-18 19:07:00,54.7,49.0,30.00,West,272,0.0,0.0,81,0.00,,---,0.00,VWS V14.01,2013-11-19 03:07:00,
2013-11-18 19:12:00,54.5,48.8,30.00,West,272,0.0,0.0,81,0.00,,---,0.00,VWS V14.01,2013-11-19 03:12:00,
2013-11-18 19:22:00,54.1,48.7,30.01,West,272,0.0,0.0,82,0.00,,---,0.00,VWS V14.01,2013-11-19 03:22:00,
2013-11-18 19:27:00,53.9,48.5,30.01,West,272,0.0,0.0,82,0.00,,---,0.00,VWS V14.01,2013-11-19 03:27:00,
2013-11-18 19:37:00,53.5,48.2,30.02,West,272,0.0,0.0,82,0.00,,---,0.00,VWS V14.01,2013-11-19 03:37:00,
2013-11-18 19:42:00,53.3,48.0,30.02,West,272,0.0,0.0,82,0.00,,---,0.00,VWS V14.01,2013-11-19 03:42:00,
2013-11-18 19:47:00,53.2,47.9,30.02,West,272,0.0,0.0,82,0.00,,---,0.00,VWS V14.01,2013-11-19 03:47:00,
2013-11-18 19:52:00,53.1,48.1,30.02,West,272,0.0,0.0,83,0.00,,---,0.00,VWS V14.01,2013-11-19 03:52:00,
2013-11-18 19:57:00,52.9,47.9,30.02,West,272,0.0,0.0,83,0.00,,---,0.00,VWS V14.01,2013-11-19 03:57:00,
2013-11-18 20:02:00,53.2,48.5,30.01,West,272,0.0,0.0,84,0.00,,---,0.00,VWS V14.01,2013-11-19 04:02:00,
2013-11-18 20:12:00,53.1,48.4,30.01,West,272,0.0,0.0,84,0.00,,---,0.00,VWS V14.01,2013-11-19 04:12:00,
2013-11-18 20:17:00,52.9,48.2,30.01,West,272,0.0,0.0,84,0.00,,---,0.00,VWS V14.01,2013-11-19 04:17:00,
2013-11-18 20:22:00,52.8,48.4,30.01,West,272,0.0,0.0,85,0.00,,---,0.00,VWS V14.01,2013-11-19 04:22:00,
2013-11-18 20:27:00,52.6,48.2,30.01,West,272,0.0,0.0,85,0.00,,---,0.00,VWS V14.01,2013-11-19 04:27:00,
2013-11-18 20:32:00,52.5,48.1,30.01,West,272,0.0,0.0,85,0.00,,---,0.00,VWS V14.01,2013-11-19 04:32:00,
2013-11-18 20:42:00,52.3,47.9,30.01,West,272,0.0,0.0,85,0.00,,---,0.00,VWS V14.01,2013-11-19 04:42:00,
2013-11-18 20:52:00,52.0,47.6,30.03,West,272,0.0,0.0,85,0.00,,---,0.00,VWS V14.01,2013-11-19 04:52:00,
2013-11-18 20:57:00,52.0,47.6,30.03,West,272,0.0,0.0,85,0.00,,---,0.00,VWS V14.01,2013-11-19 04:57:00,
2013-11-18 21:02:00,51.9,47.5,30.03,West,272,0.0,0.0,85,0.00,,---,0.00,VWS V14.01,2013-11-19 05:02:00,
2013-11-18 21:07:00,51.7,47.7,30.03,West,272,0.0,0.0,86,0.00,,---,0.00,VWS V14.01,2013-11-19 05:07:00,
2013-11-18 21:12:00,51.7,47.7,30.03,West,272,0.0,0.0,86,0.00,,---,0.00,VWS V14.01,2013-11-19 05:12:00,
2013-11-18 21:17:00,51.6,47.6,30.02,West,272,0.0,0.0,86,0.00,,---,0.00,VWS V14.01,2013-11-19 05:17:00,
2013-11-18 21:27:00,51.3,47.3,30.02,West,272,0.0,0.0,86,0.00,,---,0.00,VWS V14.01,2013-11-19 05:27:00,
2013-11-18 21:32:00,51.1,47.1,30.03,West,272,0.0,0.0,86,0.00,,---,0.00,VWS V14.01,2013-11-19 05:32:00,
2013-11-18 21:37:00,51.0,47.0,30.03,West,272,0.0,0.0,86,0.00,,---,0.00,VWS V14.01,2013-11-19 05:37:00,
2013-11-18 21:42:00,51.0,47.0,30.03,West,272,0.0,0.0,86,0.00,,---,0.00,VWS V14.01,2013-11-19 05:42:00,
2013-11-18 21:47:00,50.8,46.8,30.03,West,272,0.0,0.0,86,0.00,,---,0.00,VWS V14.01,2013-11-19 05:47:00,
2013-11-18 21:57:00,51.1,47.4,30.03,West,272,0.0,0.0,87,0.00,,---,0.00,VWS V14.01,2013-11-19 05:57:00,
2013-11-18 22:07:00,51.4,47.7,30.03,West,272,0.0,0.0,87,0.00,,---,0.00,VWS V14.01,2013-11-19 06:07:00,
2013-11-18 22:12:00,51.7,48.3,30.03,West,272,0.0,0.0,88,0.00,,---,0.00,VWS V14.01,2013-11-19 06:12:00,
2013-11-18 22:17:00,52.3,48.9,30.02,West,272,0.0,0.0,88,0.00,,---,0.00,VWS V14.01,2013-11-19 06:17:00,
2013-11-18 22:22:00,52.5,49.4,30.02,West,272,0.0,0.0,89,0.00,,---,0.00,VWS V14.01,2013-11-19 06:22:00,
2013-11-18 22:27:00,52.8,49.7,30.02,West,272,0.0,0.0,89,0.00,,---,0.00,VWS V14.01,2013-11-19 06:27:00,
2013-11-18 22:32:00,52.6,49.5,30.01,West,272,0.0,0.0,89,0.00,,---,0.00,VWS V14.01,2013-11-19 06:32:00,
2013-11-18 22:42:00,52.6,49.5,30.01,West,272,0.0,0.0,89,0.00,,---,0.00,VWS V14.01,2013-11-19 06:42:00,
2013-11-18 22:47:00,52.8,49.7,30.01,West,272,0.0,0.0,89,0.00,,---,0.00,VWS V14.01,2013-11-19 06:47:00,
2013-11-18 22:52:00,52.8,49.7,30.01,West,272,0.0,0.0,89,0.00,,---,0.00,VWS V14.01,2013-11-19 06:52:00,
2013-11-18 22:57:00,52.9,49.8,30.01,West,272,0.0,0.0,89,0.00,,---,0.00,VWS V14.01,2013-11-19 06:57:00,
2013-11-18 23:02:00,52.9,49.8,30.01,West,272,0.0,0.0,89,0.00,,---,0.00,VWS V14.01,2013-11-19 07:02:00,
2013-11-18 23:12:00,53.2,50.3,30.01,West,272,0.0,0.0,90,0.00,,---,0.00,VWS V14.01,2013-11-19 07:12:00,
2013-11-18 23:17:00,53.1,50.2,30.00,West,272,0.0,0.0,90,0.00,,---,0.00,VWS V14.01,2013-11-19 07:17:00,
2013-11-18 23:22:00,53.1,50.2,30.00,West,272,0.0,0.0,90,0.00,,---,0.00,VWS V14.01,2013-11-19 07:22:00,
2013-11-18 23:27:00,53.1,50.2,30.00,West,272,0.0,0.0,90,0.00,,---,0.00,VWS V14.01,2013-11-19 07:27:00,
2013-11-18 23:32:00,52.9,50.0,30.00,West,272,0.0,0.0,90,0.00,,---,0.00,VWS V14.01,2013-11-19 07:32:00,
2013-11-18 23:37:00,52.9,50.0,30.00,West,272,0.0,0.0,90,0.00,,---,0.00,VWS V14.01,2013-11-19 07:37:00,
2013-11-18 23:42:00,52.9,50.0,30.00,West,272,0.0,0.0,90,0.00,,---,0.00,VWS V14.01,2013-11-19 07:42:00,
2013-11-18 23:52:00,52.8,50.0,30.00,West,272,0.0,0.0,90,0.00,,---,0.00,VWS V14.01,2013-11-19 07:52:00,